Country
Station

 

Weather  for  Worcester, Worcester Regional Airport  -  United States    United States

  
1 °C (34 °F)
    
 
 

Current METAR for Worcester, Worcester Regional Airport is :

KORH 240254Z 24010KT 10SM CLR 01/M08 A3004 RMK AO2 SLP183 T00111083 53001 $

 

This is a report for Worcester, Worcester Regional Airport - United States.
 
The report was made 11 minutes ago, at 02:54 UTC .
The wind was blowing at a speed of 5.1 meters per second (11.5 miles per hour) from west/southwest (240°).
 
The temperature was 1 °C (34 °F), with a dew-point at -8 °C (18 °F).
The temperature felt like -4 °C (26 °F).
 
The atmospheric pressure was 1017 hPa (30.04 inHg).
The relative humidity was 50.9%.
 
The sky was clear.
 
The overall visibility was 16.1 kilometers (10.0 miles).
 

 
 
 
 

Country :   A   B   C   D   E   F   G   H   I   J   K   L   M   N   O   P   Q   R   S   T   U   V   W   Y   Z

 

Site Info  |  Disclaimer  |  Credits  |  Privacy
Contact us  |  Add to favorites
© 2013-2020 METARs - All rights reserved